Marfret Guyane — FNMV — position and weather

sailwx.info

Track history (hours):
 
Tides and Currents Weather Stations Pressure Air Temp Water Temp Dewpoint Dewpoint Depression Visibility Wind Speed Wind Dir Waves Ship Positions

Marfret Guyane

Last reported at 2017-Jan-15 23:28 UTC. Time now 2017-Jan-18 10:14 UTC.
Position N 10°50' W 061°32'.

Length 170 m; draft 6.3 m.

Type: Ship (hazmat cat A). MMSI: 226324000.

Date/timePositionNaut miles runAvg speedWind from/ knotsBaromVisibWave heightAir tempDewpointWater temp
2017-Jan-15 23:28N 10°50' W 061°32'1517.1
2017-Jan-15 22:34N 10°43' W 061°46'1211.8
2017-Jan-15 21:33N 10°37' W 061°35'4 3.9
2017-Jan-15 20:28N 10°39' W 061°32'0 0.0
2017-Jan-15 19:31N 10°39' W 061°32'0 0.0
2017-Jan-15 18:31N 10°39' W 061°32'0 0.0
2017-Jan-15 17:31N 10°39' W 061°32'0 0.0
2017-Jan-15 16:31N 10°39' W 061°32'0 0.0
2017-Jan-15 15:31N 10°39' W 061°32'0 0.0
2017-Jan-15 14:31N 10°39' W 061°32'0 0.0
2017-Jan-15 13:31N 10°39' W 061°32'0 0.0
2017-Jan-15 12:25N 10°39' W 061°32'0 0.0
2017-Jan-15 11:31N 10°39' W 061°32'0 0.0
2017-Jan-15 10:31N 10°39' W 061°32'0 0.0
2017-Jan-15 09:28N 10°39' W 061°32'0 0.0
2017-Jan-15 08:31N 10°39' W 061°32'0 0.0
2017-Jan-15 07:31N 10°39' W 061°32'0 0.0
2017-Jan-15 06:28N 10°39' W 061°32'0 0.0
2017-Jan-15 05:31N 10°39' W 061°32'0 0.0
2017-Jan-15 04:31N 10°39' W 061°32'0 0.0
2017-Jan-15 03:31N 10°39' W 061°32'0 0.0
2017-Jan-15 02:31N 10°39' W 061°32'0 0.0
2017-Jan-15 01:31N 10°39' W 061°32'0 0.0
2017-Jan-15 00:31N 10°39' W 061°32'0 0.0
2017-Jan-14 23:31N 10°39' W 061°32'0 0.0
2017-Jan-14 22:31N 10°39' W 061°32'0 0.0
2017-Jan-14 21:31N 10°39' W 061°32'0 0.0
2017-Jan-14 20:31N 10°39' W 061°32'0 0.0
2017-Jan-14 19:31N 10°39' W 061°32'0 0.0
2017-Jan-14 18:31N 10°39' W 061°32'5 5.1
2017-Jan-14 17:33N 10°37' W 061°36'7 6.5
2017-Jan-14 16:33N 10°36' W 061°43'6 5.9
2017-Jan-14 15:34N 10°39' W 061°48'1111.3
2017-Jan-14 14:33N 10°50' W 061°50'1412.3
2017-Jan-14 13:27N 11°03' W 061°53'1212.6
2017-Jan-14 12:30N 11°15' W 061°57'30816.9
2017-Jan-13 18:17N 16°18' W 062°53'7618.1
2017-Jan-13 14:05N 17°33' W 063°07'2717.3
2017-Jan-13 12:33N 17°59' W 063°05'3 0.5
2017-Jan-13 07:33N 18°01' W 063°03'0 0.0
2017-Jan-13 06:33N 18°01' W 063°03'0 0.0
2017-Jan-13 05:33N 18°01' W 063°03'0 0.0
2017-Jan-13 03:24N 18°01' W 063°03'0 0.0
2017-Jan-12 23:24N 18°01' W 063°03'0 0.0
2017-Jan-12 21:27N 18°01' W 063°03'2 1.0
2017-Jan-12 19:27N 17°60' W 063°05'  
2017-Jan-07 10:24N 36°47' W 026°44'1517.8
2017-Jan-07 09:33N 36°53' W 026°27'1817.9
2017-Jan-07 08:33N 37°02' W 026°07'1817.6
2017-Jan-07 07:34N 37°11' W 025°49'1817.8
2017-Jan-07 06:33N 37°20' W 025°29'1817.9
2017-Jan-07 05:34N 37°29' W 025°10'1817.7
2017-Jan-07 04:33N 37°40' W 024°52'1817.7
2017-Jan-07 03:33N 37°51' W 024°35'1817.8
2017-Jan-07 02:33N 38°03' W 024°17'1817.8
2017-Jan-07 01:33N 38°14' W 023°60'1818.1
2017-Jan-07 00:33N 38°25' W 023°42'1818.1
2017-Jan-06 23:33N 38°37' W 023°24'1817.8
2017-Jan-06 22:33N 38°48' W 023°06'1818.2
2017-Jan-06 21:34N 38°60' W 022°48'  
Track history (hours):
 
Tides and Currents Weather Stations Pressure Air Temp Water Temp Dewpoint Dewpoint Depression Visibility Wind Speed Wind Dir Waves Ship Positions

Marfret Guyane

Last reported at 2017-Jan-15 23:28 UTC. Time now 2017-Jan-18 10:14 UTC.
Position N 10°50' W 061°32'.

Length 170 m; draft 6.3 m.

Type: Ship (hazmat cat A). MMSI: 226324000.

Date/timePositionNaut miles runAvg speedWind from/ knotsBaromVisibWave heightAir tempDewpointWater temp
2017-Jan-15 23:28N 10°50' W 061°32'1517.1
2017-Jan-15 22:34N 10°43' W 061°46'1211.8
2017-Jan-15 21:33N 10°37' W 061°35'4 3.9
2017-Jan-15 20:28N 10°39' W 061°32'0 0.0
2017-Jan-15 19:31N 10°39' W 061°32'0 0.0
2017-Jan-15 18:31N 10°39' W 061°32'0 0.0
2017-Jan-15 17:31N 10°39' W 061°32'0 0.0
2017-Jan-15 16:31N 10°39' W 061°32'0 0.0
2017-Jan-15 15:31N 10°39' W 061°32'0 0.0
2017-Jan-15 14:31N 10°39' W 061°32'0 0.0
2017-Jan-15 13:31N 10°39' W 061°32'0 0.0
2017-Jan-15 12:25N 10°39' W 061°32'0 0.0
2017-Jan-15 11:31N 10°39' W 061°32'0 0.0
2017-Jan-15 10:31N 10°39' W 061°32'0 0.0
2017-Jan-15 09:28N 10°39' W 061°32'0 0.0
2017-Jan-15 08:31N 10°39' W 061°32'0 0.0
2017-Jan-15 07:31N 10°39' W 061°32'0 0.0
2017-Jan-15 06:28N 10°39' W 061°32'0 0.0
2017-Jan-15 05:31N 10°39' W 061°32'0 0.0
2017-Jan-15 04:31N 10°39' W 061°32'0 0.0
2017-Jan-15 03:31N 10°39' W 061°32'0 0.0
2017-Jan-15 02:31N 10°39' W 061°32'0 0.0
2017-Jan-15 01:31N 10°39' W 061°32'0 0.0
2017-Jan-15 00:31N 10°39' W 061°32'0 0.0
2017-Jan-14 23:31N 10°39' W 061°32'0 0.0
2017-Jan-14 22:31N 10°39' W 061°32'0 0.0
2017-Jan-14 21:31N 10°39' W 061°32'0 0.0
2017-Jan-14 20:31N 10°39' W 061°32'0 0.0
2017-Jan-14 19:31N 10°39' W 061°32'0 0.0
2017-Jan-14 18:31N 10°39' W 061°32'5 5.1
2017-Jan-14 17:33N 10°37' W 061°36'7 6.5
2017-Jan-14 16:33N 10°36' W 061°43'6 5.9
2017-Jan-14 15:34N 10°39' W 061°48'1111.3
2017-Jan-14 14:33N 10°50' W 061°50'1412.3
2017-Jan-14 13:27N 11°03' W 061°53'1212.6
2017-Jan-14 12:30N 11°15' W 061°57'30816.9
2017-Jan-13 18:17N 16°18' W 062°53'7618.1
2017-Jan-13 14:05N 17°33' W 063°07'2717.3
2017-Jan-13 12:33N 17°59' W 063°05'3 0.5
2017-Jan-13 07:33N 18°01' W 063°03'0 0.0
2017-Jan-13 06:33N 18°01' W 063°03'0 0.0
2017-Jan-13 05:33N 18°01' W 063°03'0 0.0
2017-Jan-13 03:24N 18°01' W 063°03'0 0.0
2017-Jan-12 23:24N 18°01' W 063°03'0 0.0
2017-Jan-12 21:27N 18°01' W 063°03'2 1.0
2017-Jan-12 19:27N 17°60' W 063°05'  
2017-Jan-07 10:24N 36°47' W 026°44'1517.8
2017-Jan-07 09:33N 36°53' W 026°27'1817.9
2017-Jan-07 08:33N 37°02' W 026°07'1817.6
2017-Jan-07 07:34N 37°11' W 025°49'1817.8
2017-Jan-07 06:33N 37°20' W 025°29'1817.9
2017-Jan-07 05:34N 37°29' W 025°10'1817.7
2017-Jan-07 04:33N 37°40' W 024°52'1817.7
2017-Jan-07 03:33N 37°51' W 024°35'1817.8
2017-Jan-07 02:33N 38°03' W 024°17'1817.8
2017-Jan-07 01:33N 38°14' W 023°60'1818.1
2017-Jan-07 00:33N 38°25' W 023°42'1818.1
2017-Jan-06 23:33N 38°37' W 023°24'1817.8
2017-Jan-06 22:33N 38°48' W 023°06'1818.2
2017-Jan-06 21:34N 38°60' W 022°48'  

Dump ship's entire track history